Archival Weather

Václav Havel Intl Apt

Prague, Czechia (LKPR)

Report from: Monday, May 29, 2023 7:30 AM CEST
Current time: Saturday, February 24, 2024 4:37 PM CET

Current weather – Weather history – Daily summaries
Weather forecast

Temperature12.0°C (53.6°F)
Dew point6.0°C (42.8°F)
Winds 3 kts (1.5 m/s, 3.5 mph) Vrb
Winds variableWinds variable from West-Northwest (290°) to North-Northeast (20°)
Clouds Sky clear
Altimeter30.09 in.Hg (1019 mB)
Relative humidity67 %
Density altitude-415 ft. (-127 m)
Remarks Ceiling and visibility OK
No significant changes expected in the next two hours
Flight conditions Visual Meteorological Conditions
Raw dataLKPR 290530Z 34003KT 290V020 CAVOK 12/06 Q1019 NOSIG
An error has occurred. This application may no longer respond until reloaded. Reload 🗙